Time;durP1;ratioP1;P1;durP2;ratioP2;P2;SDS_P1;SDS_P2;PMS_P1;PMS_P2;Temp;Humidity;BMP_temperature;BMP_pressure;BME280_temperature;BME280_humidity;BME280_pressure;Samples;Min_cycle;Max_cycle;Signal;HPM_P1;HPM_P2
2022/04/12 00:00:29;;;;;;;5.45;2.90;;;7.50;99.90;;;;;;4387007;28;10021761;-75
2022/04/12 00:02:55;;;;;;;7.20;4.20;;;7.50;99.90;;;;;;5039078;28;20068;-75
2022/04/12 00:05:21;;;;;;;5.90;4.47;;;7.40;99.90;;;;;;5055594;28;20032;-75
2022/04/12 00:07:47;;;;;;;5.28;3.88;;;7.30;99.90;;;;;;5051697;28;20059;-75
2022/04/12 00:10:13;;;;;;;4.80;4.15;;;7.30;99.90;;;;;;5061129;28;20491;-75
2022/04/12 00:12:40;;;;;;;7.22;4.47;;;7.10;99.90;;;;;;5059669;28;20112;-75
2022/04/12 00:15:07;;;;;;;6.95;4.30;;;7.00;99.90;;;;;;5057331;28;20032;-75
2022/04/12 00:20:19;;;;;;;6.63;4.45;;;6.90;99.90;;;;;;5059474;28;20757;-75
2022/04/12 00:22:45;;;;;;;6.32;4.50;;;6.80;99.90;;;;;;5052534;28;20055;-75
2022/04/12 00:25:11;;;;;;;6.90;4.45;;;6.80;99.90;;;;;;5051881;28;20561;-75
2022/04/12 00:27:37;;;;;;;9.13;4.50;;;6.70;99.90;;;;;;5058319;28;20202;-75
2022/04/12 00:30:05;;;;;;;6.90;4.68;;;6.70;99.90;;;;;;5049108;28;20048;-75
2022/04/12 00:32:31;;;;;;;5.38;4.13;;;6.70;99.90;;;;;;5059749;28;20036;-75
2022/04/12 00:34:56;;;;;;;7.70;5.00;;;6.70;99.90;;;;;;5049527;28;20124;-75
2022/04/12 00:37:22;;;;;;;7.03;4.68;;;6.70;99.90;;;;;;5053565;28;20032;-75
2022/04/12 00:39:47;;;;;;;6.70;4.53;;;6.70;99.90;;;;;;5057160;28;20473;-75
2022/04/12 00:42:13;;;;;;;6.43;4.70;;;6.70;99.90;;;;;;5058075;28;20021;-75
2022/04/12 00:44:38;;;;;;;5.82;4.20;;;6.70;99.90;;;;;;5046134;28;20272;-75
2022/04/12 00:47:04;;;;;;;7.57;5.05;;;6.70;99.90;;;;;;5048393;28;20057;-75
2022/04/12 00:49:30;;;;;;;7.95;4.78;;;6.70;99.90;;;;;;5051613;28;20031;-75
2022/04/12 00:51:56;;;;;;;5.78;4.30;;;6.70;99.90;;;;;;5053262;28;20310;-75
2022/04/12 00:54:23;;;;;;;9.20;5.00;;;6.70;99.90;;;;;;5049139;28;20105;-75
2022/04/12 00:56:51;;;;;;;6.00;4.60;;;6.80;99.90;;;;;;5045718;28;20103;-74
2022/04/12 00:59:18;;;;;;;6.32;4.60;;;6.80;99.90;;;;;;5053320;28;20037;-75
2022/04/12 01:01:43;;;;;;;7.20;4.78;;;6.80;99.90;;;;;;5048317;28;20037;-74
2022/04/12 01:04:09;;;;;;;9.20;5.45;;;6.70;99.90;;;;;;5047455;28;20393;-75
2022/04/12 01:06:36;;;;;;;7.88;4.55;;;6.70;99.90;;;;;;5054332;28;20188;-75
2022/04/12 01:09:05;;;;;;;6.40;4.65;;;6.80;99.90;;;;;;5047391;28;20033;-74
2022/04/12 01:11:32;;;;;;;9.48;5.07;;;6.80;99.90;;;;;;5048278;28;20049;-75
2022/04/12 01:13:57;;;;;;;7.28;4.80;;;6.80;99.90;;;;;;5045434;28;20035;-74
2022/04/12 01:16:23;;;;;;;7.00;4.85;;;6.80;99.90;;;;;;5046343;28;20058;-74
2022/04/12 01:18:48;;;;;;;7.63;5.15;;;6.70;99.90;;;;;;5050064;28;20104;-75
2022/04/12 01:21:14;;;;;;;9.95;5.20;;;6.70;99.90;;;;;;5048379;28;20037;-75
2022/04/12 01:23:58;;;;;;;8.55;5.05;;;6.70;99.90;;;;;;5044707;28;20024;-75
2022/04/12 01:26:24;;;;;;;10.57;5.10;;;6.70;99.90;;;;;;5049947;28;20122;-75
2022/04/12 01:28:49;;;;;;;7.25;5.00;;;6.70;99.90;;;;;;5058413;28;20441;-75
2022/04/12 01:31:15;;;;;;;6.53;4.88;;;6.60;99.90;;;;;;5086789;28;20028;-75
2022/04/12 01:33:41;;;;;;;7.63;5.45;;;6.60;99.90;;;;;;5096183;28;20032;-74
2022/04/12 01:36:06;;;;;;;9.43;5.38;;;6.60;99.90;;;;;;5091634;28;20404;-75
2022/04/12 01:38:32;;;;;;;8.50;5.18;;;6.70;99.90;;;;;;5093495;28;20035;-75
2022/04/12 01:40:57;;;;;;;10.18;5.88;;;6.70;99.90;;;;;;5091613;28;20020;-75
2022/04/12 01:43:23;;;;;;;6.93;5.20;;;6.80;99.90;;;;;;5097239;28;20023;-75
2022/04/12 01:45:48;;;;;;;8.45;4.82;;;6.80;99.90;;;;;;5099559;28;20484;-75
2022/04/12 01:48:14;;;;;;;6.70;4.50;;;6.80;99.90;;;;;;5095122;28;20032;-75
2022/04/12 01:50:40;;;;;;;7.63;5.38;;;6.80;99.90;;;;;;5092513;28;20054;-75
2022/04/12 01:53:06;;;;;;;12.98;5.55;;;6.80;99.90;;;;;;5095464;28;20089;-75
2022/04/12 01:55:31;;;;;;;8.50;5.50;;;6.90;99.90;;;;;;5091517;28;20058;-75
2022/04/12 01:57:57;;;;;;;8.82;5.38;;;6.90;99.90;;;;;;5100157;28;20028;-75
2022/04/12 02:00:22;;;;;;;8.07;5.07;;;7.00;99.90;;;;;;5096864;28;20016;-75
2022/04/12 02:02:48;;;;;;;7.80;4.93;;;7.00;99.90;;;;;;5092777;28;20468;-75
2022/04/12 02:05:14;;;;;;;8.80;5.07;;;6.90;99.90;;;;;;5100772;28;20012;-75
2022/04/12 02:07:43;;;;;;;7.93;5.00;;;6.90;99.90;;;;;;5091711;28;20023;-75
2022/04/12 02:10:09;;;;;;;6.78;4.88;;;6.90;99.90;;;;;;5095315;28;20564;-74
2022/04/12 02:12:35;;;;;;;6.53;4.95;;;6.90;99.90;;;;;;5093728;28;20111;-74
2022/04/12 02:15:02;;;;;;;9.15;5.40;;;6.80;99.90;;;;;;5100111;28;20032;-74
2022/04/12 02:17:28;;;;;;;6.90;4.78;;;6.80;99.90;;;;;;5088167;28;20240;-74
2022/04/12 02:19:53;;;;;;;7.43;4.60;;;6.70;99.90;;;;;;5091707;28;20042;-75
2022/04/12 02:22:19;;;;;;;8.45;4.80;;;6.60;99.90;;;;;;5098351;28;20131;-74
2022/04/12 02:24:44;;;;;;;7.70;4.70;;;6.60;99.90;;;;;;5096356;28;20035;-75
2022/04/12 02:27:10;;;;;;;6.50;4.45;;;6.50;99.90;;;;;;5097134;28;20521;-74
2022/04/12 02:29:35;;;;;;;6.05;4.50;;;6.50;99.90;;;;;;5094106;28;20048;-75
2022/04/12 02:32:01;;;;;;;6.55;4.85;;;6.40;99.90;;;;;;5102554;28;20027;-75
2022/04/12 02:34:26;;;;;;;7.10;4.68;;;6.40;99.90;;;;;;5097498;28;20028;-75
2022/04/12 02:36:52;;;;;;;7.60;4.60;;;6.40;99.90;;;;;;5097208;28;20434;-74
2022/04/12 02:39:18;;;;;;;7.90;4.70;;;6.30;99.90;;;;;;5087165;28;20024;-74
2022/04/12 02:41:43;;;;;;;8.60;5.03;;;6.30;99.90;;;;;;5091541;28;20054;-75
2022/04/12 02:44:09;;;;;;;7.38;4.72;;;6.30;99.90;;;;;;5098236;28;20061;-75
2022/04/12 02:46:34;;;;;;;7.60;4.78;;;6.30;99.90;;;;;;5097066;28;20723;-75
2022/04/12 02:49:00;;;;;;;6.65;4.32;;;6.30;99.90;;;;;;5095900;28;20024;-74
2022/04/12 02:51:25;;;;;;;6.03;4.35;;;6.30;99.90;;;;;;5093771;28;20677;-75
2022/04/12 02:53:51;;;;;;;6.72;4.63;;;6.40;99.90;;;;;;5093806;28;20036;-75
2022/04/12 02:56:17;;;;;;;6.10;4.30;;;6.40;99.90;;;;;;5087768;28;20566;-75
2022/04/12 02:58:42;;;;;;;7.40;4.65;;;6.50;99.90;;;;;;5090149;28;20027;-75
2022/04/12 03:01:08;;;;;;;6.97;4.57;;;6.50;99.90;;;;;;5094181;28;20039;-75
2022/04/12 03:03:34;;;;;;;6.03;4.60;;;6.50;99.90;;;;;;5091821;28;20043;-75
2022/04/12 03:05:59;;;;;;;7.20;4.75;;;6.40;99.90;;;;;;5082367;28;20040;-75
2022/04/12 03:08:25;;;;;;;5.60;4.47;;;6.40;99.90;;;;;;5092902;28;20033;-75
2022/04/12 03:10:51;;;;;;;7.43;4.68;;;6.40;99.90;;;;;;5096497;28;20027;-75
2022/04/12 03:13:16;;;;;;;5.68;4.18;;;6.30;99.90;;;;;;5094188;28;20024;-75
2022/04/12 03:15:42;;;;;;;6.47;4.50;;;6.30;99.90;;;;;;5085664;28;20070;-75
2022/04/12 03:18:07;;;;;;;6.25;4.50;;;6.20;99.90;;;;;;5090924;28;20031;-75
2022/04/12 03:20:34;;;;;;;6.10;4.30;;;6.20;99.90;;;;;;5091178;28;20028;-75
2022/04/12 03:22:59;;;;;;;7.07;4.60;;;6.20;99.90;;;;;;5099393;28;20027;-75
2022/04/12 03:25:25;;;;;;;6.28;4.68;;;6.20;99.90;;;;;;5081738;28;20507;-74
2022/04/12 03:27:51;;;;;;;7.40;4.50;;;6.20;99.90;;;;;;5087595;28;20107;-74
2022/04/12 03:30:16;;;;;;;9.38;4.53;;;6.20;99.90;;;;;;5090344;28;20048;-74
2022/04/12 03:32:43;;;;;;;6.05;4.43;;;6.10;99.90;;;;;;5092094;28;20028;-74
2022/04/12 03:35:09;;;;;;;7.63;4.72;;;6.10;99.90;;;;;;5085731;28;20030;-74
2022/04/12 03:37:35;;;;;;;5.53;4.30;;;6.10;99.90;;;;;;5094155;28;20391;-74
2022/04/12 03:40:01;;;;;;;6.00;4.30;;;6.10;99.90;;;;;;5097147;28;20024;-74
2022/04/12 03:42:26;;;;;;;7.10;4.78;;;6.10;99.90;;;;;;5097468;28;20050;-74
2022/04/12 03:44:52;;;;;;;7.25;4.28;;;6.00;99.90;;;;;;5085791;28;20016;-74
2022/04/12 03:47:18;;;;;;;8.60;4.70;;;6.00;99.90;;;;;;5093475;28;20392;-75
2022/04/12 03:49:43;;;;;;;7.10;4.28;;;6.00;99.90;;;;;;5094680;28;20032;-74
2022/04/12 03:52:09;;;;;;;6.40;4.50;;;6.00;99.90;;;;;;5092491;28;20076;-75
2022/04/12 03:54:36;;;;;;;5.35;4.15;;;6.00;99.90;;;;;;5085168;28;20453;-75
2022/04/12 03:57:01;;;;;;;6.65;4.80;;;6.00;99.90;;;;;;5085706;28;20110;-75
2022/04/12 03:59:27;;;;;;;6.35;4.38;;;6.00;99.90;;;;;;5100007;28;20043;-75
2022/04/12 04:01:53;;;;;;;6.70;4.70;;;6.00;99.90;;;;;;5093045;28;20077;-75
2022/04/12 04:04:19;;;;;;;6.72;4.40;;;6.00;99.90;;;;;;5087050;28;20108;-75
2022/04/12 04:06:44;;;;;;;8.43;4.50;;;6.10;99.90;;;;;;5094256;28;20038;-75
2022/04/12 04:09:10;;;;;;;6.03;4.22;;;6.10;99.90;;;;;;5100686;28;20710;-75
2022/04/12 04:11:40;;;;;;;6.43;4.60;;;6.10;99.90;;;;;;5091774;28;20039;-75
2022/04/12 04:14:06;;;;;;;5.97;4.47;;;6.10;99.90;;;;;;5086299;28;20677;-75
2022/04/12 04:16:32;;;;;;;7.35;4.38;;;6.10;99.90;;;;;;5087165;28;20032;-75
2022/04/12 04:18:58;;;;;;;7.07;4.63;;;6.00;99.90;;;;;;5095474;28;20027;-75
2022/04/12 04:21:23;;;;;;;8.05;4.50;;;6.00;99.90;;;;;;5096912;28;20085;-75
2022/04/12 04:23:49;;;;;;;9.75;4.50;;;6.00;99.90;;;;;;5099996;28;20556;-75
2022/04/12 04:26:15;;;;;;;6.45;4.25;;;6.00;99.90;;;;;;5092892;28;20032;-75
2022/04/12 04:28:42;;;;;;;6.85;4.50;;;6.10;99.90;;;;;;5099125;28;20048;-75
2022/04/12 04:31:08;;;;;;;7.18;4.45;;;6.10;99.90;;;;;;5096813;28;20057;-76
2022/04/12 04:33:34;;;;;;;9.82;5.07;;;6.10;99.90;;;;;;5088232;28;20031;-75
2022/04/12 04:35:59;;;;;;;7.68;4.25;;;6.10;99.90;;;;;;5088563;28;20154;-75
2022/04/12 04:38:25;;;;;;;8.05;4.57;;;6.10;99.90;;;;;;5090770;28;20073;-75
2022/04/12 04:40:50;;;;;;;6.13;4.40;;;6.20;99.90;;;;;;5099049;28;20103;-75
2022/04/12 04:43:16;;;;;;;6.82;4.28;;;6.10;99.90;;;;;;5100124;28;20058;-74
2022/04/12 04:45:43;;;;;;;9.52;5.15;;;6.20;99.90;;;;;;5086055;28;20054;-75
2022/04/12 04:48:10;;;;;;;6.25;4.50;;;6.20;99.90;;;;;;5088464;28;20031;-75
2022/04/12 04:50:36;;;;;;;7.65;4.30;;;6.20;99.90;;;;;;5091761;28;20024;-75
2022/04/12 04:53:04;;;;;;;6.63;4.53;;;6.20;99.90;;;;;;5096575;28;20032;-75
2022/04/12 04:55:30;;;;;;;6.85;4.60;;;6.30;99.90;;;;;;5092296;28;20055;-74
2022/04/12 04:57:58;;;;;;;9.63;4.65;;;6.30;99.90;;;;;;5090084;28;20020;-74
2022/04/12 05:00:25;;;;;;;6.90;4.30;;;6.20;99.90;;;;;;5091104;28;20020;-74
2022/04/12 05:02:53;;;;;;;6.60;4.15;;;6.20;99.90;;;;;;5097427;28;20518;-74
2022/04/12 05:05:19;;;;;;;7.65;3.90;;;6.20;99.90;;;;;;5095706;28;20024;-74
2022/04/12 05:07:46;;;;;;;8.38;4.63;;;6.20;99.90;;;;;;5097491;28;20028;-74
2022/04/12 05:10:20;;;;;;;7.30;4.40;;;6.20;99.90;;;;;;5098279;28;20024;-74
2022/04/12 05:12:46;;;;;;;8.38;4.57;;;6.20;99.90;;;;;;5093380;28;20020;-74
2022/04/12 05:15:12;;;;;;;8.60;4.57;;;6.20;99.90;;;;;;5098538;28;20111;-74
2022/04/12 05:17:39;;;;;;;6.55;4.47;;;6.30;99.90;;;;;;5091112;28;20657;-74
2022/04/12 05:20:11;;;;;;;6.65;4.30;;;6.40;99.90;;;;;;5095201;28;20028;-74
2022/04/12 05:22:37;;;;;;;9.27;4.38;;;6.40;99.90;;;;;;5094839;28;20420;-74
2022/04/12 05:25:03;;;;;;;7.80;4.78;;;6.50;99.90;;;;;;5087429;28;20062;-75
2022/04/12 05:27:33;;;;;;;8.65;5.43;;;6.60;99.90;;;;;;5096238;28;20024;-74
2022/04/12 05:30:00;;;;;;;12.82;6.18;;;6.60;99.90;;;;;;5091285;28;20044;-74
2022/04/12 05:32:25;;;;;;;7.82;5.45;;;6.60;99.90;;;;;;5089336;28;20042;-74
2022/04/12 05:34:52;;;;;;;11.65;6.18;;;6.70;99.90;;;;;;5091072;28;20025;-75
2022/04/12 05:37:18;;;;;;;8.95;5.90;;;6.70;99.90;;;;;;5094003;28;20046;-74
2022/04/12 05:39:43;;;;;;;10.98;5.13;;;6.70;99.90;;;;;;5094375;28;20020;-75
2022/04/12 05:42:09;;;;;;;8.98;5.32;;;6.70;99.90;;;;;;5093150;28;20419;-75
2022/04/12 05:44:35;;;;;;;8.63;5.07;;;6.80;99.90;;;;;;5092489;28;20039;-75
2022/04/12 05:47:04;;;;;;;11.07;5.00;;;6.80;99.90;;;;;;5104299;28;20032;-75
2022/04/12 05:49:30;;;;;;;10.25;5.78;;;6.90;99.90;;;;;;5095924;28;20177;-74
2022/04/12 05:51:57;;;;;;;7.22;5.35;;;6.90;99.90;;;;;;5091306;28;20760;-74
2022/04/12 05:54:23;;;;;;;9.40;4.85;;;7.00;99.90;;;;;;5088929;28;20024;-75
2022/04/12 05:56:49;;;;;;;7.85;5.10;;;7.00;99.90;;;;;;5098275;28;20740;-75
2022/04/12 05:59:14;;;;;;;8.10;4.82;;;7.00;99.90;;;;;;4378256;28;10000913;-75
2022/04/12 06:01:40;;;;;;;5.97;4.63;;;7.10;99.90;;;;;;5050552;28;20112;-76
2022/04/12 06:04:06;;;;;;;6.50;4.72;;;7.20;99.90;;;;;;5055491;28;20170;-74
2022/04/12 06:06:32;;;;;;;10.50;5.20;;;7.30;99.90;;;;;;5057800;28;20118;-76
2022/04/12 06:08:59;;;;;;;8.65;4.90;;;7.40;99.90;;;;;;5049000;28;20033;-72
2022/04/12 06:11:24;;;;;;;6.03;4.53;;;7.50;99.90;;;;;;5054701;28;20029;-72
2022/04/12 06:13:50;;;;;;;6.75;4.22;;;7.60;99.90;;;;;;5047780;28;20032;-72
2022/04/12 06:16:15;;;;;;;6.63;4.45;;;7.70;99.90;;;;;;5047112;28;20041;-71
2022/04/12 06:18:41;;;;;;;8.15;4.82;;;7.80;99.90;;;;;;5051416;28;20025;-70
2022/04/12 06:21:07;;;;;;;8.57;5.07;;;7.90;99.90;;;;;;5054234;28;20032;-71
2022/04/12 06:23:33;;;;;;;9.00;4.90;;;7.90;99.90;;;;;;5047553;28;20563;-71
2022/04/12 06:25:59;;;;;;;8.05;4.97;;;8.00;99.90;;;;;;5058245;28;20530;-70
2022/04/12 06:28:25;;;;;;;7.53;4.60;;;8.10;99.90;;;;;;5052023;28;20508;-71
2022/04/12 06:30:52;;;;;;;8.50;5.18;;;8.20;99.90;;;;;;5054847;28;20047;-71
2022/04/12 06:33:18;;;;;;;8.65;5.00;;;8.30;99.90;;;;;;5085652;28;20762;-71
2022/04/12 06:35:44;;;;;;;7.63;5.03;;;8.30;99.90;;;;;;5092916;28;20765;-71
2022/04/12 06:38:10;;;;;;;9.23;5.10;;;8.40;99.90;;;;;;5092340;28;20408;-71
2022/04/12 06:40:35;;;;;;;11.38;5.10;;;8.50;99.90;;;;;;5092020;28;20055;-71
2022/04/12 06:43:02;;;;;;;8.45;5.30;;;8.50;99.90;;;;;;5090481;28;20016;-71
2022/04/12 06:45:27;;;;;;;6.88;4.95;;;8.60;99.90;;;;;;5090760;28;20530;-71
2022/04/12 06:47:55;;;;;;;8.32;4.68;;;8.70;99.90;;;;;;5090759;28;20028;-71
2022/04/12 06:50:21;;;;;;;7.53;4.80;;;8.80;99.90;;;;;;5092342;28;20434;-71
2022/04/12 06:52:46;;;;;;;7.60;5.07;;;9.00;99.90;;;;;;5097533;28;20030;-71
2022/04/12 06:55:12;;;;;;;9.15;5.43;;;9.10;99.90;;;;;;5092979;28;20024;-71
2022/04/12 06:57:38;;;;;;;9.82;5.90;;;9.30;99.90;;;;;;5092701;28;20236;-71
2022/04/12 07:00:06;;;;;;;9.43;5.05;;;9.40;99.90;;;;;;5091210;28;20038;-71
2022/04/12 07:02:31;;;;;;;11.88;5.20;;;9.50;99.90;;;;;;5090871;28;20028;-71
2022/04/12 07:04:57;;;;;;;7.55;5.18;;;9.50;99.90;;;;;;5095109;28;20028;-71
2022/04/12 07:07:23;;;;;;;8.10;5.03;;;9.60;99.90;;;;;;5094299;28;20015;-71
2022/04/12 07:09:49;;;;;;;8.93;5.60;;;9.60;99.90;;;;;;5101831;28;20020;-71
2022/04/12 07:12:15;;;;;;;9.85;5.53;;;9.70;99.90;;;;;;5103001;28;20088;-71
2022/04/12 07:14:40;;;;;;;8.88;5.80;;;9.70;99.90;;;;;;5099583;28;20035;-71
2022/04/12 07:17:06;;;;;;;6.72;5.20;;;9.60;99.90;;;;;;5089683;28;20110;-71
2022/04/12 07:19:31;;;;;;;8.35;5.28;;;9.50;99.90;;;;;;5091533;28;20130;-71
2022/04/12 07:21:57;;;;;;;7.40;4.90;;;9.50;99.90;;;;;;5099006;28;20051;-71
2022/04/12 07:24:23;;;;;;;8.73;5.75;;;9.70;99.90;;;;;;5097788;28;20089;-71
2022/04/12 07:26:49;;;;;;;9.43;5.18;;;9.90;99.90;;;;;;5097869;28;20057;-71
2022/04/12 07:29:15;;;;;;;8.98;5.43;;;10.00;99.90;;;;;;5094842;28;20035;-71
2022/04/12 07:31:41;;;;;;;8.23;5.03;;;10.20;99.90;;;;;;5087578;28;20127;-71
2022/04/12 07:34:07;;;;;;;10.02;5.07;;;10.40;99.90;;;;;;5094988;28;20652;-71
2022/04/12 07:36:33;;;;;;;10.07;5.50;;;10.60;99.90;;;;;;5095671;28;20031;-71
2022/04/12 07:38:58;;;;;;;9.00;5.47;;;10.70;99.90;;;;;;5086807;28;20123;-71
2022/04/12 07:41:24;;;;;;;10.70;5.95;;;10.90;99.90;;;;;;5088697;28;20400;-71
2022/04/12 07:43:52;;;;;;;7.97;5.28;;;10.90;99.30;;;;;;5089335;28;20492;-70
2022/04/12 07:46:17;;;;;;;9.95;5.50;;;11.10;98.40;;;;;;5103035;28;20452;-71
2022/04/12 07:48:44;;;;;;;10.32;5.65;;;11.20;97.50;;;;;;5093470;28;20059;-71
2022/04/12 07:51:10;;;;;;;11.15;5.60;;;11.30;96.90;;;;;;5089690;28;20063;-71
2022/04/12 07:53:37;;;;;;;9.05;5.43;;;11.40;97.40;;;;;;5085843;28;20046;-70
2022/04/12 07:56:03;;;;;;;9.43;5.88;;;11.50;97.40;;;;;;5089394;28;20048;-70
2022/04/12 07:58:29;;;;;;;9.65;5.75;;;11.80;97.60;;;;;;5095480;28;20111;-71
2022/04/12 08:00:54;;;;;;;9.23;5.65;;;11.90;97.40;;;;;;5097262;28;20107;-73
2022/04/12 08:03:21;;;;;;;8.20;5.75;;;12.00;97.60;;;;;;5093020;28;20040;-72
2022/04/12 08:05:50;;;;;;;10.55;5.05;;;12.20;96.30;;;;;;5097996;28;20054;-71
2022/04/12 08:08:16;;;;;;;7.95;5.30;;;12.30;96.90;;;;;;5091930;28;20179;-72
2022/04/12 08:10:42;;;;;;;8.80;5.47;;;12.40;95.70;;;;;;5094242;28;20547;-72
2022/04/12 08:13:07;;;;;;;14.70;5.93;;;12.50;95.10;;;;;;5087701;28;20511;-72
2022/04/12 08:15:33;;;;;;;9.95;5.88;;;12.50;93.90;;;;;;5083765;28;20043;-71
2022/04/12 08:17:58;;;;;;;8.15;5.50;;;12.60;94.00;;;;;;5091365;28;20031;-71
2022/04/12 08:20:24;;;;;;;11.82;5.93;;;12.70;94.50;;;;;;5091440;28;20027;-72
2022/04/12 08:22:52;;;;;;;10.05;6.25;;;12.80;92.40;;;;;;5092159;28;20036;-73
2022/04/12 08:25:18;;;;;;;9.65;5.60;;;12.90;91.90;;;;;;5086013;28;20034;-72
2022/04/12 08:27:44;;;;;;;8.90;5.35;;;13.10;92.30;;;;;;5086529;28;20047;-71
2022/04/12 08:30:10;;;;;;;9.75;5.75;;;13.30;91.80;;;;;;5089719;28;20589;-72
2022/04/12 08:32:36;;;;;;;10.25;5.70;;;13.30;90.60;;;;;;5085545;28;20032;-72
2022/04/12 08:35:03;;;;;;;9.13;5.55;;;13.50;88.60;;;;;;5084933;28;20041;-73
2022/04/12 08:37:28;;;;;;;9.95;5.57;;;13.40;90.40;;;;;;5095365;28;20515;-72
2022/04/12 08:39:54;;;;;;;11.00;6.00;;;13.40;89.70;;;;;;5095561;28;20011;-71
2022/04/12 08:42:21;;;;;;;9.73;5.78;;;13.50;87.70;;;;;;5087035;28;20543;-71
2022/04/12 08:44:48;;;;;;;10.40;5.80;;;13.50;88.70;;;;;;5086328;28;20446;-71
2022/04/12 08:47:15;;;;;;;9.98;6.07;;;13.50;88.90;;;;;;5090956;28;23252;-72
2022/04/12 08:49:42;;;;;;;10.80;6.03;;;13.60;90.70;;;;;;5088454;28;20529;-70
2022/04/12 08:52:11;;;;;;;13.57;5.93;;;13.60;90.20;;;;;;5087940;28;20072;-72
2022/04/12 08:54:41;;;;;;;10.30;6.00;;;13.70;87.00;;;;;;5085869;28;20111;-72
2022/04/12 08:57:08;;;;;;;8.52;6.05;;;13.80;87.30;;;;;;5084614;28;20369;-72
2022/04/12 08:59:35;;;;;;;9.95;6.35;;;13.90;84.30;;;;;;5085728;28;20028;-72
2022/04/12 09:02:00;;;;;;;8.75;5.65;;;13.90;82.20;;;;;;5086423;28;20028;-73
2022/04/12 09:04:27;;;;;;;8.50;5.70;;;14.00;81.90;;;;;;5090275;28;20039;-73
2022/04/12 09:06:55;;;;;;;8.18;5.45;;;14.10;80.50;;;;;;5094481;28;20202;-73
2022/04/12 09:09:22;;;;;;;10.52;5.63;;;14.10;82.40;;;;;;5086900;28;20144;-72
2022/04/12 09:11:57;;;;;;;8.80;5.40;;;14.20;84.00;;;;;;5095724;28;20368;-72
2022/04/12 09:14:23;;;;;;;10.68;6.22;;;14.40;80.20;;;;;;5089215;28;20498;-71
2022/04/12 09:16:51;;;;;;;10.98;5.80;;;14.40;78.90;;;;;;5086883;28;20028;-71
2022/04/12 09:19:40;;;;;;;7.82;5.65;;;14.50;79.00;;;;;;5091803;28;20031;-72
2022/04/12 09:22:19;;;;;;;6.90;5.13;;;14.60;79.80;;;;;;5088999;28;20046;-72
2022/04/12 09:24:49;;;;;;;9.10;5.45;;;14.80;80.60;;;;;;5091788;28;20024;-71
2022/04/12 09:27:16;;;;;;;8.90;5.80;;;15.20;91.80;;;;;;5091693;28;20059;-72
2022/04/12 09:29:47;;;;;;;9.82;5.45;;;15.30;88.90;;;;;;5091855;28;20093;-73
2022/04/12 09:32:15;;;;;;;11.05;6.00;;;;;;;;;;5085730;28;20442;-72
2022/04/12 09:34:41;;;;;;;8.68;5.55;;;;;;;;;;5086446;28;20221;-72
2022/04/12 09:37:29;;;;;;;9.27;5.43;;;15.20;73.60;;;;;;5087172;28;20024;-72
2022/04/12 09:40:05;;;;;;;8.57;4.80;;;15.30;73.40;;;;;;5096944;28;20020;-72
2022/04/12 09:42:44;;;;;;;7.85;5.07;;;15.20;73.20;;;;;;5085550;28;20020;-73
2022/04/12 09:45:13;;;;;;;7.40;5.10;;;15.30;75.40;;;;;;5084282;28;20020;-72
2022/04/12 09:47:39;;;;;;;6.93;4.78;;;15.40;70.30;;;;;;5086307;28;20484;-73
2022/04/12 09:50:06;;;;;;;7.20;4.85;;;15.40;70.60;;;;;;5086114;28;20028;-73
2022/04/12 09:52:31;;;;;;;9.80;5.40;;;15.50;71.40;;;;;;5097350;28;20062;-73
2022/04/12 09:54:57;;;;;;;7.43;4.65;;;15.50;70.70;;;;;;5101001;28;20062;-74
2022/04/12 09:57:24;;;;;;;10.90;5.20;;;15.60;72.30;;;;;;5086948;28;20044;-73
2022/04/12 09:59:54;;;;;;;9.90;5.15;;;15.80;74.00;;;;;;5087257;28;20481;-72
2022/04/12 10:02:22;;;;;;;7.72;4.97;;;15.90;69.60;;;;;;5086701;28;20036;-72
2022/04/12 10:04:49;;;;;;;7.65;4.75;;;16.00;68.90;;;;;;5093170;28;20034;-73
2022/04/12 10:07:19;;;;;;;8.52;4.88;;;16.00;67.10;;;;;;5098257;28;20510;-73
2022/04/12 10:09:46;;;;;;;7.90;5.22;;;16.10;68.40;;;;;;5094650;28;20032;-73
2022/04/12 10:12:12;;;;;;;10.30;4.38;;;16.20;67.10;;;;;;5092782;28;20032;-74
2022/04/12 10:14:38;;;;;;;7.35;4.75;;;16.30;69.90;;;;;;5093373;28;20027;-73
2022/04/12 10:17:04;;;;;;;9.27;5.18;;;16.40;67.50;;;;;;5100555;28;20028;-74
2022/04/12 10:19:31;;;;;;;7.97;4.32;;;16.50;63.90;;;;;;5089891;28;20549;-74
2022/04/12 10:21:57;;;;;;;7.43;4.13;;;16.60;65.00;;;;;;5091361;28;20093;-73
2022/04/12 10:24:24;;;;;;;5.65;4.30;;;16.70;68.30;;;;;;5088896;28;20020;-74
2022/04/12 10:26:51;;;;;;;8.77;5.03;;;16.90;65.80;;;;;;5090788;28;20059;-73
2022/04/12 10:29:17;;;;;;;8.07;4.32;;;17.00;62.80;;;;;;5095309;28;20043;-73
2022/04/12 10:31:58;;;;;;;8.75;4.85;;;17.10;66.60;;;;;;5090587;28;20024;-74
2022/04/12 10:34:23;;;;;;;6.57;4.40;;;17.20;63.40;;;;;;5091382;28;20048;-73
2022/04/12 10:36:55;;;;;;;9.70;5.00;;;17.20;62.30;;;;;;5099259;28;20582;-73
2022/04/12 10:39:37;;;;;;;7.38;4.68;;;17.30;62.40;;;;;;5088785;28;20398;-73
2022/04/12 10:42:14;;;;;;;7.10;4.68;;;17.30;61.10;;;;;;5094111;28;20024;-73
2022/04/12 10:44:50;;;;;;;6.28;4.40;;;17.40;59.70;;;;;;5092580;28;20699;-73
2022/04/12 10:47:27;;;;;;;7.32;4.28;;;17.50;62.10;;;;;;5088411;28;20431;-73
2022/04/12 10:49:55;;;;;;;6.55;3.55;;;17.60;60.90;;;;;;5092099;28;20032;-73
2022/04/12 10:52:34;;;;;;;9.57;4.00;;;17.70;59.70;;;;;;5091769;28;20032;-73
2022/04/12 10:55:01;;;;;;;6.65;4.18;;;17.70;61.40;;;;;;5092211;28;20035;-73
2022/04/12 10:57:26;;;;;;;8.68;4.38;;;17.80;61.40;;;;;;5090866;28;20044;-73
2022/04/12 11:00:08;;;;;;;7.47;4.30;;;17.80;61.00;;;;;;5089114;28;20082;-73
2022/04/12 11:02:58;;;;;;;5.65;3.70;;;17.80;57.80;;;;;;5094336;28;20030;-72
2022/04/12 11:05:39;;;;;;;6.80;4.25;;;17.80;59.50;;;;;;5086734;28;20527;-72
2022/04/12 11:08:06;;;;;;;7.43;4.35;;;17.90;59.30;;;;;;5089306;28;20040;-72
2022/04/12 11:10:32;;;;;;;7.90;4.20;;;17.90;59.70;;;;;;5089062;28;20757;-72
2022/04/12 11:13:11;;;;;;;6.75;3.80;;;18.00;58.30;;;;;;5098911;28;20043;-72
2022/04/12 11:15:40;;;;;;;5.70;4.20;;;18.10;59.10;;;;;;5087981;28;20638;-72
2022/04/12 11:18:11;;;;;;;5.82;3.92;;;18.10;59.70;;;;;;5086678;28;20058;-72
2022/04/12 11:20:41;;;;;;;5.35;3.60;;;18.10;59.40;;;;;;5094790;28;20073;-72
2022/04/12 11:23:12;;;;;;;6.35;4.07;;;18.20;59.00;;;;;;5093642;28;20511;-73
2022/04/12 11:25:48;;;;;;;5.82;3.90;;;18.40;60.00;;;;;;5099643;28;20024;-74
2022/04/12 11:28:17;;;;;;;6.38;3.95;;;18.50;58.30;;;;;;5092374;28;20028;-73
2022/04/12 11:30:53;;;;;;;6.30;3.92;;;18.60;59.80;;;;;;5057469;28;20053;-73
2022/04/12 11:33:22;;;;;;;6.05;4.15;;;18.80;60.40;;;;;;5058924;28;20024;-73
2022/04/12 11:35:49;;;;;;;6.10;4.20;;;18.90;58.40;;;;;;5061001;28;20044;-73
2022/04/12 11:38:18;;;;;;;7.70;4.05;;;19.00;58.90;;;;;;5053587;28;20032;-73
2022/04/12 11:40:44;;;;;;;6.85;4.32;;;19.10;57.80;;;;;;5056889;28;20040;-73
2022/04/12 11:43:28;;;;;;;7.75;3.83;;;19.10;56.70;;;;;;5062086;28;20020;-73
2022/04/12 11:45:56;;;;;;;5.60;4.50;;;19.20;57.00;;;;;;5045131;28;20024;-73
2022/04/12 11:48:22;;;;;;;7.88;4.80;;;19.30;56.30;;;;;;5059242;28;20044;-73
2022/04/12 11:50:54;;;;;;;9.95;4.47;;;19.30;55.30;;;;;;5046742;28;20393;-73
2022/04/12 11:53:21;;;;;;;5.40;4.10;;;19.40;55.50;;;;;;5047141;28;20025;-73
2022/04/12 11:55:47;;;;;;;5.00;3.78;;;19.50;56.10;;;;;;5044734;28;20047;-73
2022/04/12 11:58:14;;;;;;;5.20;3.72;;;19.60;55.90;;;;;;5048265;28;20112;-73
2022/04/12 12:00:40;;;;;;;7.97;4.90;;;19.70;56.70;;;;;;5050234;28;20053;-73
2022/04/12 12:03:12;;;;;;;5.07;4.20;;;19.80;56.00;;;;;;5059710;28;20489;-73
2022/04/12 12:05:38;;;;;;;5.32;3.53;;;19.80;55.30;;;;;;5059601;28;20090;-73
2022/04/12 12:08:03;;;;;;;10.80;4.50;;;19.90;56.40;;;;;;5051809;28;20453;-73
2022/04/12 12:10:30;;;;;;;5.05;4.05;;;20.10;56.20;;;;;;5050561;28;20025;-72
2022/04/12 12:12:56;;;;;;;5.57;3.88;;;20.20;54.90;;;;;;5046469;28;20021;-73
2022/04/12 12:15:24;;;;;;;6.13;3.40;;;20.20;54.90;;;;;;5048773;28;20147;-72
2022/04/12 12:17:52;;;;;;;4.50;3.63;;;20.00;55.50;;;;;;5054782;28;20493;-73
2022/04/12 12:20:20;;;;;;;5.25;3.80;;;20.00;54.80;;;;;;5061313;28;20059;-72
2022/04/12 12:22:49;;;;;;;6.47;3.80;;;20.10;54.90;;;;;;5063648;28;20024;-72
2022/04/12 12:25:23;;;;;;;5.15;3.92;;;20.10;54.60;;;;;;5054276;28;20116;-72
2022/04/12 12:27:53;;;;;;;9.02;4.13;;;20.20;55.70;;;;;;5059951;28;20059;-72
2022/04/12 12:30:22;;;;;;;4.95;3.67;;;20.30;53.20;;;;;;5088718;28;20054;-72
2022/04/12 12:32:54;;;;;;;6.13;3.65;;;20.30;53.30;;;;;;5097772;28;20499;-82
2022/04/12 12:35:23;;;;;;;9.98;3.33;;;20.20;52.90;;;;;;5085074;28;20047;-70
2022/04/12 12:37:49;;;;;;;5.70;3.40;;;20.10;54.10;;;;;;5092103;28;20115;-78
2022/04/12 12:40:18;;;;;;;4.72;3.05;;;20.10;54.90;;;;;;5084936;28;20127;-72
2022/04/12 12:42:44;;;;;;;6.43;3.13;;;20.30;55.40;;;;;;5088142;28;20442;-75
2022/04/12 12:45:12;;;;;;;8.13;3.42;;;20.50;54.80;;;;;;5086193;28;20020;-72
2022/04/12 12:47:41;;;;;;;7.88;3.33;;;20.50;54.00;;;;;;5083307;28;20032;-75
2022/04/12 12:50:11;;;;;;;6.32;3.38;;;20.60;53.70;;;;;;5099192;28;20032;-77
2022/04/12 12:52:38;;;;;;;3.42;2.72;;;20.50;54.10;;;;;;5092927;28;20020;-74
2022/04/12 12:55:07;;;;;;;5.88;3.00;;;20.70;54.30;;;;;;5085458;28;20630;-75